TISX/STX METAR and TAF weather

Enter ICAO airport designator
Station Type Date Time Source
TISX METAR 2019/10/15 03:53 UTC NOAA

TISX 150353Z AUTO 06007KT 10SM FEW029 27/23 A3000 RMK AO2 SLP156 T02670233 403220244


Station Type Date Time Source
TISX Decoded METAR 2019/10/15 03:53 UTC NOAA

Christiansted, Henry E. Rohlsen Airport, Virgin Islands (TISX) 17-42N 064-48W 17M
Oct 14, 2019 - 11:53 PM EDT / 2019.10.15 0353 UTC
Wind: from the ENE (060 degrees) at 8 MPH (7 KT):0
Visibility: 10 mile(s):0
Sky conditions: mostly clear
Temperature: 80.1 F (26.7 C)
Dew Point: 73.9 F (23.3 C)
Relative Humidity: 81%
Pressure (altimeter): 30 in. Hg (1015 hPa)
ob: TISX 150353Z AUTO 06007KT 10SM FEW029 27/23 A3000 RMK AO2 SLP156 T02670233 403220244
cycle: 4

Station Type Date Time Source
TISX TAF 2019/10/15 04:41 UTC NOAA

TAF
AMD TISX 150333Z 1504/1524 02006KT P6SM -SHRA VCSH SCT025 SCT050
FM150900 VRB05KT P6SM -SHRA VCSH SCT025 BKN050
FM151500 12012KT P6SM VCTS SCT030CB SCT050
FM152200 06010KT P6SM VCSH SCT030

Example: see airport list